Vargem Grande, Brazil
Current Conditions -  °F | °C
As of 6:00 AM on Saturday 25 Oct 2014 (Local Time) from SBSL Reporting Station
Broken Clouds Broken Clouds  
Wind Chill: 81°   Ceiling: 1700
Heat Index: 83°   Visibility: 6mi
Dew Point: 68°   Wind: 12mph
Humidity: 65%   Direction: 70°ENE
Pressure: 29.8"   Gusts: NA
Location:  3.54°S, 43.92°W
Report Text: SBSL 250900Z 07010KT 9999 BKN017 27/20 Q1009
Loading
Personal Weather Stations






























Interactive Weather Map
Tropical Storm Tracking
New forecast layout! Learn more

10-Day Weather Forecast

Advertisements
Track Severe Weather on mobile